Airfield :
LOGIN :

Register | Disclaimer

   EN    FR    IT 

 










Legend :    VFR   Marginal VFR   IFR   Intensive IFR   Very Intensive IFR
Visi :
Ceiling :
>= 8 km
>= 3000ft
5 to 8 km
1000 to 3000 ft
1500m to 5 km
500 to 1000 ft
800 to 1500m
200 to 500 ft
< 800m
< 200 ft
Symbols :   Thunderstorms  Fog  Heavy snow  Heavy precipitations  Wind > 20 kt
SIGMETs :     Misc.  Thunderstorms  Icing  Turbulence  Mountain Waves  Volcanic Ashes







- Airport Elevation : 80 ft
- IATA code : LPL
- Download approach charts


EGGP - Liverpool John Lennon

CURRENT METAR :
  • 210250Z 16013KT 9999 FEW009 BKN017 13/11 Q0994

EXPIRED METARs :
  • 210220Z 15009KT 9999 -RA FEW005 BKN013 12/11 Q0995
  • 210150Z 13010KT 9999 -RA FEW005 BKN010 13/12 Q0995
  • 210120Z 14008KT 9999 -RA FEW005 BKN010 13/12 Q0995
  • 210050Z 14006KT 100V170 9999 -RA FEW005 BKN010 13/12 Q0996
  • 210020Z 15010KT 110V170 9999 -RA FEW005 BKN010 13/12 Q0997
  • 202350Z 15015KT 9000 -RA FEW005 BKN011 12/12 Q0997

TAF AMD TAF EGGP
Valid from the 21 at 02:00 until the 22 at 00:00 UTC


210204Z 2102/2124 17012KT 9999 BKN010
BECMG 2102/2104 SCT030
PROB30
TEMPO 2102/2105 17015G25KT 7000 SHRA
BECMG 2105/2108 18018G28KT
TEMPO 2108/2114 7000 SHRA
PROB30
TEMPO 2108/2114 20030G42KT 4000 +SHRA
BECMG 2114/2117 26022G32KT
TEMPO 2114/2124 27030G42KT 4000 +SHRA BKN010
ATIS : +44 151 907 2000 (option 5 or ext 5150)
Met : +44 871 750 5150
No reported NOTAMs for that airfield.
1 SIGMET reported for the London FIR (EGTT) :
 
Severe turbulence
EGTT SIGMET 01 VALID 210200/210600 EGRR
EGTT LONDON FIR SEV TURB FCST WI N4850 W00800 - N5100 W00800 - N5220 W00530 - N5340 W00530 - N5340 W00400 - N4937 W00400 - N4850 W00800 SFC/FL060 MOV E 20KT NC=



MET'MAP, your aeronautical weather chart ! - Copyright ORBIFLY December 2007 - Disclaimer

ORBIFLY MET'MAP TEAM :

Programming & Development : Alexandra Zaïnal
Concept & Development : Baudouin d'Aumeries
Co-Development & Prog : Marc-Olivier Méhu
Technical & hardware support : Manuel Goepfert

Contact : metmap@orbifly.com




SOURCES & CREDITS :

   NOAA